Aviation Digital Data Service (ADDS)

Output produced by METARs form (1011 UTC 14 December 2017)
found at http://www.aviationweather.gov/adds/metars/
 
K5A6 140955Z AUTO 00000KT 10SM CLR 03/M01 A2990 RMK AO2 T00291008
K5A6 140935Z AUTO 00000KT 10SM CLR 03/M01 A2990 RMK AO2 T00301009
K5A6 140915Z AUTO 00000KT 10SM CLR 04/M01 A2991 RMK AO2 T00391010
K5A6 140855Z AUTO 00000KT 10SM CLR 05/M01 A2991 RMK AO2 T00541008
K5A6 140835Z AUTO 23003KT 10SM CLR 06/M01 A2991 RMK AO2 T00631007
K5A6 140815Z AUTO 24004KT 10SM CLR 07/M01 A2991 RMK AO2 T00661008
K5A6 140755Z AUTO 24003KT 10SM CLR 07/M01 A2991 RMK AO2 T00681008
K5A6 140735Z AUTO 23005KT 10SM CLR 07/M01 A2991 RMK AO2 T00721010
K5A6 140715Z AUTO 23003KT 10SM CLR 07/M01 A2991 RMK AO2 T00731011
K5A6 140655Z AUTO 24004KT 10SM CLR 08/M01 A2991 RMK AO2 T00761013
K5A6 140635Z AUTO 23004KT 10SM CLR 08/M01 A2991 RMK AO2 T00791015
K5A6 140615Z AUTO 24005KT 10SM CLR 08/M02 A2991 RMK AO2 T00791016
K5A6 140555Z AUTO 23004KT 10SM CLR 08/M02 A2991 RMK AO2 T00811016 10092 20028 401501046
K5A6 140535Z AUTO 24005KT 10SM CLR 08/M02 A2991 RMK AO2 T00841016
K5A6 140515Z AUTO 24005KT 10SM CLR 08/M02 A2992 RMK AO2 T00831016
K5A6 140455Z AUTO 23004KT 10SM CLR 08/M02 A2992 RMK AO2 T00781018
K5A6 140435Z AUTO 23004KT 10SM CLR 07/M02 A2991 RMK AO2 T00711021
K5A6 140415Z AUTO 21003KT 10SM CLR 05/M03 A2991 RMK AO2 T00541027
K5A6 140355Z AUTO 00000KT 10SM CLR 05/M03 A2991 RMK AO2 T00451029
K5A6 140335Z AUTO 20003KT 10SM CLR 03/M02 A2991 RMK AO2 T00341024
K5A6 140315Z AUTO 00000KT 10SM CLR 04/M03 A2990 RMK AO2 T00431031
K5A6 140255Z AUTO 00000KT 10SM CLR 06/M03 A2990 RMK AO2 T00561033
K5A6 140235Z AUTO 00000KT 10SM CLR 08/M04 A2989 RMK AO2 T00761036
K5A6 140215Z AUTO 00000KT 10SM CLR 08/M03 A2989 RMK AO2 T00811035
K5A6 140155Z AUTO 22003KT 10SM CLR 09/M04 A2988 RMK AO2 T00871037
K5A6 140135Z AUTO 22003KT 10SM CLR 08/M04 A2988 RMK AO2 T00831039
K5A6 140115Z AUTO 00000KT 10SM CLR 04/M03 A2988 RMK AO2 T00401026
K5A6 140055Z AUTO 00000KT 10SM CLR 05/M03 A2988 RMK AO2 T00471030
K5A6 140035Z AUTO 00000KT 10SM CLR 07/M03 A2988 RMK AO2 T00671032
K5A6 140015Z AUTO 00000KT 10SM CLR 08/M03 A2988 RMK AO2 T00841035
K5A6 132355Z AUTO 00000KT 10SM CLR 09/M03 A2987 RMK AO2 T00921035 10150 20092
K5A6 132335Z AUTO 21004KT 10SM CLR 10/M04 A2987 RMK AO2 T01021038
K5A6 132315Z AUTO 21003KT 10SM CLR 11/M04 A2987 RMK AO2 T01101039
K5A6 132255Z AUTO 21005KT 10SM CLR 12/M04 A2987 RMK AO2 T01161039
K5A6 132235Z AUTO 21004KT 10SM CLR 13/M04 A2987 RMK AO2 T01271040
K5A6 132215Z AUTO 19012G17KT 10SM CLR 13/M04 A2987 RMK AO2 T01341043
K5A6 132155Z AUTO 19011G15KT 10SM CLR 14/M05 A2988 RMK AO2 T01411053
K5A6 132135Z AUTO 20011G15KT 10SM CLR 15/M05 A2989 RMK AO2 T01451047
K5A6 132115Z AUTO 20005G14KT 10SM CLR 15/M05 A2989 RMK AO2 T01471051
K5A6 132050Z AUTO 21007KT 180V240 10SM CLR 15/M06 A2990 RMK AO2 T01501059
K5A6 132035Z AUTO 20009KT 10SM CLR 15/M05 A2991 RMK AO2 T01451047
K5A6 132010Z AUTO 22007KT 190V250 10SM CLR 14/M05 A2992 RMK AO2 T01441048
K5A6 131950Z AUTO 22007G16KT 10SM CLR 14/M05 A2994 RMK AO2 T01371050
K5A6 131935Z AUTO 21010G15KT 10SM CLR 14/M04 A2994 RMK AO2 T01351043
K5A6 131915Z AUTO 24012G20KT 10SM CLR 13/M05 A2996 RMK AO2 T01321050
K5A6 131855Z AUTO 20012G15KT 10SM CLR 13/M04 A2995 RMK AO2 T01301042
K5A6 131835Z AUTO 19010G16KT 10SM CLR 12/M04 A2996 RMK AO2 T01221044
K5A6 131815Z AUTO 19010G16KT 10SM CLR 12/M04 A2997 RMK AO2 T01171043
K5A6 131755Z AUTO 19012KT 10SM CLR 11/M04 A2999 RMK AO2 T01141044 10115 21046
K5A6 131735Z AUTO 20009KT 180V240 10SM CLR 11/M05 A3000 RMK AO2 T01091050
K5A6 131715Z AUTO 19008KT 10SM CLR 10/M04 A3003 RMK AO2 T00991040
K5A6 131700Z AUTO 20008KT 10SM CLR 09/M03 A3005 RMK AO2 T00931032
K5A6 131635Z AUTO 20010G16KT 10SM CLR 08/M04 A3007 RMK AO2 T00801038
K5A6 131615Z AUTO 19009KT 10SM CLR 07/M03 A3008 RMK AO2 T00701029
K5A6 131555Z AUTO 20007KT 10SM CLR 06/M03 A3009 RMK AO2 T00571026
K5A6 131540Z AUTO 20006KT 10SM CLR 05/M02 A3010 RMK AO2 T00461024
K5A6 131515Z AUTO 22004KT 10SM CLR 03/M02 A3010 RMK AO2 T00291020
K5A6 131455Z AUTO 22003KT 10SM CLR 02/M02 A3010 RMK AO2 T00171023
K5A6 131435Z AUTO 22003KT 10SM CLR 00/M02 A3009 RMK AO2 T00021018
K5A6 131415Z AUTO 00000KT 10SM CLR M01/M02 A3010 RMK AO2 T10121023
K5A6 131355Z AUTO 00000KT 10SM CLR M02/M02 A3009 RMK AO2 T10251025
K5A6 131335Z AUTO 00000KT 10SM CLR M04/M04 A3010 RMK AO2 T10411041
K5A6 131315Z AUTO 00000KT 10SM CLR M04/M04 A3010 RMK AO2 T10451045
K5A6 131255Z AUTO 00000KT 10SM CLR M04/M04 A3010 RMK AO2 T10451045
K5A6 131235Z AUTO 00000KT 10SM CLR M04/M04 A3009 RMK AO2 T10441045
K5A6 131215Z AUTO 00000KT 10SM CLR M04/M04 A3009 RMK AO2 T10431045
K5A6 131155Z AUTO 00000KT 10SM CLR M04/M04 A3010 RMK AO2 T10441044 11027 21045
K5A6 131135Z AUTO 00000KT 10SM CLR M04/M04 A3010 RMK AO2 T10411042
K5A6 131115Z AUTO 00000KT 10SM CLR M04/M04 A3010 RMK AO2 T10421043
K5A6 131055Z AUTO 00000KT 10SM CLR M04/M04 A3010 RMK AO2 T10431043
K5A6 131035Z AUTO 00000KT 10SM CLR M04/M04 A3010 RMK AO2 T10431043
K5A6 131015Z AUTO 00000KT 10SM CLR M04/M04 A3011 RMK AO2 T10401040
K5A6 130955Z AUTO 00000KT 10SM CLR M04/M04 A3011 RMK AO2 T10401040
K5A6 130935Z AUTO 00000KT 10SM CLR M04/M04 A3012 RMK AO2 T10411041
K5A6 130910Z AUTO 00000KT 10SM CLR M04/M04 A3012 RMK AO2 T10381038
K5A6 130855Z AUTO 00000KT 10SM CLR M04/M04 A3012 RMK AO2 T10371037
K5A6 130835Z AUTO 00000KT 10SM CLR M04/M04 A3013 RMK AO2 T10361036
K5A6 130815Z AUTO 00000KT 10SM CLR M03/M04 A3013 RMK AO2 T10351036
K5A6 130755Z AUTO 00000KT 10SM CLR M04/M04 A3014 RMK AO2 T10361038
K5A6 130735Z AUTO 00000KT 10SM CLR M03/M03 A3014 RMK AO2 T10311033
K5A6 130715Z AUTO 00000KT 10SM CLR M03/M03 A3015 RMK AO2 T10301031
K5A6 130655Z AUTO 00000KT 10SM CLR M03/M03 A3015 RMK AO2 T10301032
K5A6 130635Z AUTO 00000KT 10SM CLR M03/M03 A3014 RMK AO2 T10311035
K5A6 130610Z AUTO 00000KT 10SM CLR M03/M03 A3015 RMK AO2 T10281032
K5A6 130555Z AUTO 00000KT 10SM CLR M03/M03 A3016 RMK AO2 T10271032 10056 21027 401261027
K5A6 130535Z AUTO 00000KT 10SM CLR M02/M03 A3016 RMK AO2 T10201032
K5A6 130515Z AUTO 00000KT 10SM CLR M02/M03 A3016 RMK AO2 T10171028
K5A6 130455Z AUTO 00000KT 10SM CLR M01/M03 A3016 RMK AO2 T10111028
K5A6 130435Z AUTO 00000KT 10SM CLR M02/M03 A3016 RMK AO2 T10161034
K5A6 130415Z AUTO 04003KT 10SM CLR M01/M03 A3017 RMK AO2 T10121031
K5A6 130355Z AUTO 00000KT 10SM CLR M01/M03 A3017 RMK AO2 T10081029
K5A6 130335Z AUTO 00000KT 10SM CLR 00/M03 A3017 RMK AO2 T10011031
K5A6 130255Z AUTO 00000KT 10SM CLR 03/M04 A3018 RMK AO2 T00321036
K5A6 130235Z AUTO 35003KT 10SM CLR 03/M03 A3019 RMK AO2 T00341034
K5A6 130215Z AUTO 32003KT 10SM CLR 04/M03 A3019 RMK AO2 T00361030
K5A6 130155Z AUTO 31003KT 10SM CLR 04/M03 A3018 RMK AO2 T00381026
K5A6 130135Z AUTO 29003KT 10SM CLR 04/M02 A3017 RMK AO2 T00411023
K5A6 130115Z AUTO 31003KT 10SM CLR 05/M02 A3017 RMK AO2 T00451021
K5A6 130050Z AUTO 00000KT 10SM CLR 05/M02 A3017 RMK AO2 T00471017
K5A6 130035Z AUTO 00000KT 10SM CLR 05/M01 A3016 RMK AO2 T00501015
K5A6 130015Z AUTO 00000KT 10SM CLR 05/M01 A3016 RMK AO2 T00521013
K5A6 122355Z AUTO 28004KT 10SM CLR 06/M01 A3016 RMK AO2 T00571015 10114 20057
K5A6 122335Z AUTO 30003KT 10SM CLR 06/M02 A3015 RMK AO2 T00601018
K5A6 122315Z AUTO 30003KT 10SM CLR 07/M03 A3015 RMK AO2 T00671026
K5A6 122255Z AUTO 31003KT 10SM CLR 08/M02 A3015 RMK AO2 T00751025
K5A6 122230Z AUTO 32005KT 10SM CLR 09/M02 A3015 RMK AO2 T00851023
K5A6 122215Z AUTO 32007KT 10SM CLR 09/M02 A3015 RMK AO2 T00911020
K5A6 122155Z AUTO 31006G15KT 10SM CLR 10/M02 A3015 RMK AO2 T00951025
K5A6 122135Z AUTO 32009G16KT 10SM CLR 10/M02 A3014 RMK AO2 T00991023
K5A6 122110Z AUTO 30006G15KT 10SM CLR 10/M02 A3014 RMK AO2 T01041023
K5A6 122055Z AUTO 34007KT 300V360 10SM CLR 11/M01 A3014 RMK AO2 T01061014
K5A6 122035Z AUTO 31010G17KT 10SM CLR 11/M02 A3013 RMK AO2 T01071018
K5A6 122015Z AUTO 31006G15KT 10SM CLR 11/M01 A3013 RMK AO2 T01101010
K5A6 121950Z AUTO 30011G15KT 10SM CLR 11/M01 A3014 RMK AO2 T01101011
K5A6 121935Z AUTO 30007G17KT 10SM CLR 11/M01 A3014 RMK AO2 T01091008
K5A6 121915Z AUTO 31007KT 10SM CLR 11/00 A3014 RMK AO2 T01100000
K5A6 121855Z AUTO 31007KT 270V350 10SM CLR 11/00 A3015 RMK AO2 T01110000
K5A6 121835Z AUTO 32006G14KT 10SM CLR 11/00 A3015 RMK AO2 T01090000
K5A6 121810Z AUTO 31007KT 10SM CLR 11/00 A3016 RMK AO2 T01110001
K5A6 121755Z AUTO 33006KT 10SM CLR 11/00 A3017 RMK AO2 T01090001 10113 20060
K5A6 121735Z AUTO 30009G14KT 10SM CLR 11/00 A3018 RMK AO2 T01130002
K5A6 121715Z AUTO 34009G16KT 10SM CLR 10/00 A3019 RMK AO2 T01010000
K5A6 121655Z AUTO 34010G16KT 10SM SCT040 11/00 A3020 RMK AO2 T01060004
K5A6 121635Z AUTO 35010KT 10SM CLR 10/00 A3020 RMK AO2 T01030002
K5A6 121615Z AUTO 34009G15KT 10SM CLR 10/00 A3019 RMK AO2 T01020001
K5A6 121555Z AUTO 35009G17KT 10SM CLR 10/00 A3019 RMK AO2 T00970000
K5A6 121535Z AUTO 34009G18KT 10SM CLR 10/00 A3019 RMK AO2 T00950000
K5A6 121515Z AUTO 33010G18KT 300V360 10SM CLR 09/00 A3018 RMK AO2 T00900000
K5A6 121500Z AUTO 34010G17KT 300V020 10SM CLR 09/00 A3018 RMK AO2 T00870001
K5A6 121435Z AUTO 34007KT 310V020 10SM CLR 08/00 A3017 RMK AO2 T00820001
K5A6 121410Z AUTO 33007KT 10SM CLR 08/00 A3016 RMK AO2 T00750000
K5A6 121355Z AUTO 32004KT 10SM CLR 07/00 A3016 RMK AO2 T00700000
K5A6 121335Z AUTO 32004KT 10SM CLR 07/00 A3015 RMK AO2 T00651002
K5A6 121315Z AUTO 32006KT 10SM CLR 06/00 A3014 RMK AO2 T00611005
K5A6 121255Z AUTO 30003KT 10SM CLR 07/00 A3014 RMK AO2 T00651005
K5A6 121235Z AUTO 32004KT 10SM CLR 07/00 A3013 RMK AO2 T00701005
K5A6 121215Z AUTO 32003KT 10SM CLR 07/00 A3012 RMK AO2 T00711005
K5A6 121155Z AUTO 32006KT 10SM CLR 08/M01 A3010 RMK AO2 T00761006 10126 20072
K5A6 121135Z AUTO 33004KT 10SM CLR 08/M01 A3008 RMK AO2 T00781008
K5A6 121115Z AUTO 32006KT 10SM CLR 08/M01 A3007 RMK AO2 T00811010
K5A6 121055Z AUTO 33005KT 10SM CLR 09/M01 A3007 RMK AO2 T00851010
K5A6 121035Z AUTO 33006KT 10SM CLR 09/M01 A3006 RMK AO2 T00861015
K5A6 121015Z AUTO 34006KT 10SM CLR 09/M02 A3005 RMK AO2 T00861021
K5A6 120955Z AUTO 34007KT 10SM CLR 09/M02 A3005 RMK AO2 T00901022
K5A6 120935Z AUTO 34007KT 10SM CLR 09/M02 A3004 RMK AO2 T00871022
K5A6 120915Z AUTO 33006KT 10SM CLR 09/M01 A3003 RMK AO2 T00861015
K5A6 120850Z AUTO 32003KT 10SM CLR 08/00 A3003 RMK AO2 T00841001
K5A6 120835Z AUTO 32003KT 10SM CLR 07/00 A3002 RMK AO2 T00720003
K5A6 120815Z AUTO 00000KT 10SM CLR 08/01 A3001 RMK AO2 T00760005
K5A6 120755Z AUTO 00000KT 10SM CLR 09/00 A3000 RMK AO2 T00900002
K5A6 120735Z AUTO 00000KT 10SM CLR 10/00 A3000 RMK AO2 T01010000
K5A6 120715Z AUTO 34004KT 10SM CLR 10/00 A3000 RMK AO2 T01020003
K5A6 120655Z AUTO 33003KT 10SM CLR 11/01 A3000 RMK AO2 T01050006
K5A6 120635Z AUTO 33003KT 10SM CLR 11/01 A3000 RMK AO2 T01070010
K5A6 120615Z AUTO 32004KT 10SM CLR 12/02 A3000 RMK AO2 T01160015
K5A6 120555Z AUTO 31006G14KT 10SM CLR 13/02 A2999 RMK AO2 T01270017 10127 20021 401811029
K5A6 120535Z AUTO 28007KT 240V300 10SM CLR 12/02 A2998 RMK AO2 T01240022
K5A6 120515Z AUTO 00000KT 10SM CLR 04/02 A2996 RMK AO2 T00370017
K5A6 120450Z AUTO 00000KT 10SM CLR 02/01 A2996 RMK AO2 T00220007
K5A6 120440Z AUTO 00000KT 10SM CLR 03/01 A2996 RMK AO2 T00290007
K5A6 120415Z AUTO 00000KT 10SM CLR 03/01 A2997 RMK AO2 T00320008
K5A6 120355Z AUTO 00000KT 10SM CLR 04/01 A2998 RMK AO2 T00360010
K5A6 120335Z AUTO 00000KT 10SM CLR 04/01 A2998 RMK AO2 T00400010
K5A6 120315Z AUTO 00000KT 10SM CLR 04/01 A2998 RMK AO2 T00400007
K5A6 120255Z AUTO 00000KT 10SM CLR 04/01 A2999 RMK AO2 T00430005
K5A6 120235Z AUTO 00000KT 10SM CLR 05/01 A2999 RMK AO2 T00520006
K5A6 120215Z AUTO 20003KT 10SM CLR 05/01 A2999 RMK AO2 T00530006
K5A6 120155Z AUTO 00000KT 10SM CLR 04/01 A3000 RMK AO2 T00390011
K5A6 120140Z AUTO 00000KT 10SM CLR 05/01 A3000 RMK AO2 T00500008
K5A6 120110Z AUTO 00000KT 10SM CLR 05/01 A3000 RMK AO2 T00530012
K5A6 120055Z AUTO 00000KT 10SM CLR 05/01 A3001 RMK AO2 T00470014
K5A6 120035Z AUTO 00000KT 10SM CLR 06/01 A3001 RMK AO2 T00620010
K5A6 120015Z AUTO 20003KT 10SM CLR 07/01 A3000 RMK AO2 T00700013
K5A6 112335Z AUTO 00000KT 10SM CLR 09/01 A3001 RMK AO2 T00860011
K5A6 112315Z AUTO 00000KT 7SM CLR 11/01 A3001 RMK AO2 T01110009
K5A6 112255Z AUTO 22003KT 10SM CLR 14/00 A3001 RMK AO2 T01390002
K5A6 112235Z AUTO 23004KT 10SM CLR 15/01 A3002 RMK AO2 T01500006
K5A6 112215Z AUTO 21003KT 10SM CLR 17/00 A3002 RMK AO2 T01660004
K5A6 112155Z AUTO 21004KT 10SM CLR 17/00 A3002 RMK AO2 T01731005
K5A6 112135Z AUTO 22006KT 10SM CLR 18/M01 A3003 RMK AO2 T01771008
K5A6 112110Z AUTO 25006KT 10SM CLR 18/M01 A3004 RMK AO2 T01801010
K5A6 112055Z AUTO 24006KT 10SM CLR 18/M01 A3004 RMK AO2 T01801011
K5A6 112035Z AUTO 24006KT 10SM CLR 18/M01 A3005 RMK AO2 T01801010
K5A6 112015Z AUTO 24008KT 10SM CLR 18/M01 A3006 RMK AO2 T01801014
K5A6 111955Z AUTO 23008KT 10SM CLR 18/M02 A3007 RMK AO2 T01801016
K5A6 111935Z AUTO 25008KT 10SM CLR 18/M02 A3009 RMK AO2 T01781019
K5A6 111915Z AUTO 25006G15KT 10SM CLR 18/M02 A3010 RMK AO2 T01771017
K5A6 111855Z AUTO 26006KT 10SM CLR 18/M01 A3011 RMK AO2 T01751009
K5A6 111835Z AUTO 24005KT 10SM CLR 17/M01 A3011 RMK AO2 T01691011
K5A6 111815Z AUTO 23008KT 10SM CLR 17/00 A3012 RMK AO2 T01701005
K5A6 111750Z AUTO 21006KT 10SM CLR 16/00 A3013 RMK AO2 T01611001 10161 21029
K5A6 111735Z AUTO 21006KT 10SM CLR 16/00 A3014 RMK AO2 T01561003
K5A6 111715Z AUTO 00000KT 10SM CLR 14/02 A3016 RMK AO2 T01420018
K5A6 111655Z AUTO 18004KT 10SM CLR 13/02 A3017 RMK AO2 T01320022
K5A6 111635Z AUTO 19003KT 10SM CLR 11/03 A3019 RMK AO2 T01140026
K5A6 111615Z AUTO 19004KT 10SM CLR 10/02 A3018 RMK AO2 T01010023
K5A6 111555Z AUTO 18003KT 10SM CLR 09/02 A3019 RMK AO2 T00870024
K5A6 111535Z AUTO 00000KT 10SM CLR 07/02 A3020 RMK AO2 T00720016
K5A6 111515Z AUTO 00000KT 10SM CLR 06/01 A3020 RMK AO2 T00570011
K5A6 111455Z AUTO 21004KT 10SM CLR 04/01 A3020 RMK AO2 T00440007
K5A6 111435Z AUTO 00000KT 10SM CLR 03/00 A3021 RMK AO2 T00270004
K5A6 111415Z AUTO 00000KT 10SM CLR 01/00 A3020 RMK AO2 T00090000
K5A6 111335Z AUTO 00000KT 10SM CLR M02/M02 A3022 RMK AO2 T10181018
K5A6 111310Z AUTO 00000KT 10SM CLR M03/M03 A3022 RMK AO2 T10271027
K5A6 111255Z AUTO 00000KT 10SM CLR M03/M03 A3022 RMK AO2 T10261026
K5A6 111235Z AUTO 00000KT 10SM CLR M03/M03 A3021 RMK AO2 T10271027
K5A6 111215Z AUTO 00000KT 10SM CLR M03/M03 A3022 RMK AO2 T10271027
K5A6 111135Z AUTO 00000KT 10SM CLR M02/M02 A3021 RMK AO2 T10211023
K5A6 111115Z AUTO 00000KT 10SM CLR M02/M02 A3020 RMK AO2 T10231023
K5A6 111030Z AUTO 00000KT 10SM CLR M02/M02 A3021 RMK AO2 T10211024
K5A6 111015Z AUTO 00000KT 10SM CLR M02/M02 A3020 RMK AO2 T10181021